TimeCDT,TemperatureF,Dew PointF,Humidity,Sea Level PressureIn,VisibilityMPH,Wind Direction,Wind SpeedMPH,Gust SpeedMPH,PrecipitationIn,Events,Conditions,WindDirDegrees,DateUTC
12:53 AM,86.0,64.9,49,29.90,10.0,South,13.8,23.0,N/A,,Clear,180,2013-07-09 05:53:00
1:53 AM,84.9,66.0,53,29.90,10.0,South,15.0,24.2,N/A,,Clear,180,2013-07-09 06:53:00
2:53 AM,82.9,66.0,56,29.90,10.0,South,17.3,25.3,N/A,,Clear,190,2013-07-09 07:53:00
3:53 AM,82.0,66.9,60,29.88,10.0,South,15.0,23.0,N/A,,Clear,180,2013-07-09 08:53:00
4:53 AM,82.0,66.9,60,29.89,10.0,South,11.5,21.9,N/A,,Clear,180,2013-07-09 09:53:00
5:53 AM,81.0,66.9,62,29.93,10.0,Variable,3.5,-,N/A,,Clear,0,2013-07-09 10:53:00
6:53 AM,80.1,66.9,64,29.92,10.0,ESE,5.8,-,N/A,,Clear,120,2013-07-09 11:53:00
7:53 AM,81.0,68.0,65,29.90,10.0,South,11.5,-,N/A,,Clear,170,2013-07-09 12:53:00
8:53 AM,82.9,66.9,58,29.90,10.0,South,9.2,19.6,N/A,,Clear,190,2013-07-09 13:53:00
9:53 AM,88.0,66.9,49,29.88,10.0,SSW,15.0,-,N/A,,Clear,200,2013-07-09 14:53:00
10:53 AM,90.0,66.9,46,29.88,10.0,SSW,17.3,-,N/A,,Clear,200,2013-07-09 15:53:00
11:53 AM,98.1,66.0,35,29.87,10.0,SSW,18.4,24.2,N/A,,Clear,210,2013-07-09 16:53:00
12:53 PM,100.9,64.0,30,29.87,10.0,SW,15.0,21.9,N/A,,Clear,220,2013-07-09 17:53:00
1:53 PM,100.9,64.0,30,29.86,10.0,WSW,8.1,-,N/A,,Clear,240,2013-07-09 18:53:00
2:53 PM,98.1,66.0,35,29.85,10.0,West,6.9,-,N/A,,Partly Cloudy,280,2013-07-09 19:53:00
3:53 PM,100.0,61.0,28,29.83,10.0,SSW,9.2,-,0.00,,Partly Cloudy,200,2013-07-09 20:53:00
4:53 PM,106.0,63.0,25,29.80,10.0,South,6.9,-,0.00,,Clear,180,2013-07-09 21:53:00
5:53 PM,107.1,61.0,22,29.78,10.0,SSW,9.2,16.1,N/A,,Clear,210,2013-07-09 22:53:00
6:53 PM,107.1,59.0,21,29.76,10.0,South,9.2,-,N/A,,Clear,190,2013-07-09 23:53:00
7:53 PM,100.9,61.0,27,29.79,10.0,South,9.2,-,N/A,,Mostly Cloudy,190,2013-07-10 00:53:00
8:53 PM,96.1,66.0,37,29.79,10.0,NNW,4.6,-,0.00,Rain,Light Rain,330,2013-07-10 01:53:00
9:09 PM,80.6,68.0,65,29.89,5.0,WSW,33.4,49.5,0.08,Rain-Thunderstorm,Thunderstorms and Rain,250,2013-07-10 02:09:00
9:17 PM,78.8,69.8,74,29.90,5.0,West,28.8,47.2,0.12,Rain-Thunderstorm,Thunderstorms and Rain,260,2013-07-10 02:17:00
9:53 PM,73.9,68.0,82,29.94,6.0,WNW,29.9,35.7,0.52,Rain-Thunderstorm,Thunderstorms and Rain,300,2013-07-10 02:53:00
10:41 PM,75.2,69.8,83,30.02,7.0,West,11.5,-,0.05,Rain-Thunderstorm,Thunderstorms and Rain,280,2013-07-10 03:41:00
10:53 PM,75.0,69.1,82,29.97,8.0,West,6.9,-,0.07,Rain-Thunderstorm,Light Rain,280,2013-07-10 03:53:00
11:08 PM,77.0,69.8,78,29.99,7.0,SSW,6.9,-,0.02,Rain,Rain,210,2013-07-10 04:08:00
11:53 PM,75.0,69.1,82,29.93,10.0,South,10.4,-,0.05,,Partly Cloudy,180,2013-07-10 04:53:00